createdAt,value
2022-10-05T00:01:37.066Z,15.90
2022-10-05T00:04:14.716Z,15.91
2022-10-05T00:06:48.529Z,15.94
2022-10-05T00:09:24.319Z,16.04
2022-10-05T00:11:54.813Z,16.08
2022-10-05T00:14:36.690Z,16.08
2022-10-05T00:17:07.641Z,16.10
2022-10-05T00:19:40.364Z,15.93
2022-10-05T00:22:19.417Z,15.90
2022-10-05T00:24:53.435Z,15.77
2022-10-05T00:27:26.758Z,15.65
2022-10-05T00:30:01.042Z,15.38
2022-10-05T00:32:31.581Z,15.32
2022-10-05T00:35:01.900Z,15.27
2022-10-05T00:37:33.084Z,15.22
2022-10-05T00:40:04.961Z,15.15
2022-10-05T00:42:55.233Z,15.17
2022-10-05T00:45:37.218Z,15.24
2022-10-05T00:48:10.481Z,15.25
2022-10-05T00:51:01.985Z,15.19
2022-10-05T00:53:45.936Z,15.19
2022-10-05T00:56:49.016Z,15.25
2022-10-05T00:59:43.180Z,15.08
2022-10-05T01:02:29.260Z,15.01
2022-10-05T01:05:09.067Z,14.98
2022-10-05T01:08:05.739Z,14.92
2022-10-05T01:10:36.233Z,14.94
2022-10-05T01:13:11.009Z,14.88
2022-10-05T01:15:49.647Z,14.91
2022-10-05T01:18:31.199Z,14.88
2022-10-05T01:21:17.829Z,14.85
2022-10-05T01:23:54.448Z,14.84
2022-10-05T01:26:43.239Z,14.81
2022-10-05T01:29:29.980Z,14.76
2022-10-05T01:32:09.612Z,14.81
2022-10-05T01:34:50.185Z,14.81
2022-10-05T01:37:36.684Z,14.87
2022-10-05T01:40:10.068Z,14.87
2022-10-05T01:43:34.962Z,14.85
2022-10-05T01:46:20.712Z,14.50
2022-10-05T01:49:20.073Z,14.67
2022-10-05T01:52:29.064Z,14.77
2022-10-05T01:55:17.894Z,14.59
2022-10-05T01:58:09.906Z,14.51
2022-10-05T02:00:54.170Z,14.56
2022-10-05T02:03:30.319Z,14.71
2022-10-05T02:06:03.247Z,14.81
2022-10-05T02:08:59.327Z,14.80
2022-10-05T02:11:34.320Z,14.78
2022-10-05T02:14:22.506Z,14.83
2022-10-05T02:17:03.213Z,14.84
2022-10-05T02:19:54.085Z,14.80
2022-10-05T02:23:00.561Z,14.76
2022-10-05T02:25:48.722Z,14.77
2022-10-05T02:28:41.041Z,14.71
2022-10-05T02:31:33.842Z,14.63
2022-10-05T02:34:28.849Z,14.60
2022-10-05T02:37:45.908Z,14.60
2022-10-05T02:40:54.269Z,14.59
2022-10-05T02:43:54.337Z,14.56
2022-10-05T02:46:32.433Z,14.53
2022-10-05T02:49:41.918Z,14.54
2022-10-05T02:52:38.208Z,14.48
2022-10-05T02:55:25.928Z,14.30
2022-10-05T02:58:19.219Z,14.05
2022-10-05T03:01:24.093Z,13.90
2022-10-05T03:04:36.368Z,13.66
2022-10-05T03:07:26.927Z,13.50
2022-10-05T03:10:12.787Z,13.43
2022-10-05T03:13:20.705Z,13.58
2022-10-05T03:15:57.615Z,13.85
2022-10-05T03:18:39.487Z,13.61
2022-10-05T03:21:41.300Z,13.55
2022-10-05T03:24:36.383Z,13.78
2022-10-05T03:27:37.248Z,13.83
2022-10-05T03:30:27.491Z,13.47
2022-10-05T03:33:44.525Z,13.65
2022-10-05T03:36:40.615Z,13.89
2022-10-05T03:39:21.309Z,13.95
2022-10-05T03:42:08.506Z,13.99
2022-10-05T03:44:51.960Z,13.95
2022-10-05T03:48:00.438Z,13.83
2022-10-05T03:50:57.640Z,13.57
2022-10-05T03:53:37.117Z,13.45
2022-10-05T03:56:12.107Z,13.62
2022-10-05T03:59:01.220Z,13.68
2022-10-05T04:02:11.026Z,13.61
2022-10-05T04:05:09.633Z,13.65
2022-10-05T04:07:44.248Z,13.57
2022-10-05T04:10:20.872Z,13.06
2022-10-05T04:13:06.737Z,12.97
2022-10-05T04:15:43.763Z,12.77
2022-10-05T04:18:49.946Z,12.90
2022-10-05T04:21:27.892Z,13.15
2022-10-05T04:24:15.329Z,13.25
2022-10-05T04:26:58.148Z,13.30
2022-10-05T04:29:52.244Z,13.35
2022-10-05T04:32:43.931Z,13.35
2022-10-05T04:35:26.930Z,13.35
2022-10-05T04:38:21.732Z,13.35
2022-10-05T04:41:11.086Z,13.38
2022-10-05T04:44:13.872Z,13.31
2022-10-05T04:47:21.248Z,13.28
2022-10-05T04:50:13.309Z,13.24
2022-10-05T04:53:17.410Z,13.21
2022-10-05T04:56:12.194Z,13.02
2022-10-05T04:58:54.553Z,12.72
2022-10-05T05:01:51.266Z,12.77
2022-10-05T05:04:51.788Z,12.48
2022-10-05T05:07:49.978Z,12.57
2022-10-05T05:10:40.239Z,12.72
2022-10-05T05:13:42.045Z,12.46
2022-10-05T05:16:27.866Z,12.24
2022-10-05T05:19:36.025Z,12.46
2022-10-05T05:22:27.328Z,12.50
2022-10-05T05:25:01.172Z,12.48
2022-10-05T05:28:03.341Z,12.53
2022-10-05T05:30:54.403Z,12.60
2022-10-05T05:33:37.679Z,12.38
2022-10-05T05:36:22.167Z,12.39
2022-10-05T05:39:31.166Z,12.24
2022-10-05T05:42:24.253Z,12.32
2022-10-05T05:44:58.488Z,12.35
2022-10-05T05:47:39.013Z,12.29
2022-10-05T05:50:44.954Z,12.36
2022-10-05T05:53:21.859Z,12.29
2022-10-05T05:56:41.604Z,12.26
2022-10-05T05:59:30.518Z,12.14
2022-10-05T06:02:08.715Z,12.21
2022-10-05T06:05:16.363Z,12.25
2022-10-05T06:07:49.684Z,12.06
2022-10-05T06:10:27.590Z,11.94
2022-10-05T06:13:13.939Z,11.98
2022-10-05T06:15:50.616Z,12.11
2022-10-05T06:18:24.171Z,12.17
2022-10-05T06:21:20.816Z,12.18
2022-10-05T06:24:06.541Z,11.95
2022-10-05T06:27:17.939Z,11.87
2022-10-05T06:30:08.800Z,12.01
2022-10-05T06:33:05.645Z,12.10
2022-10-05T06:35:48.409Z,12.12
2022-10-05T06:38:50.321Z,12.14
2022-10-05T06:41:39.080Z,11.90
2022-10-05T06:44:36.143Z,11.88
2022-10-05T06:47:48.874Z,11.97
2022-10-05T06:50:59.247Z,12.05
2022-10-05T06:53:55.456Z,12.12
2022-10-05T06:56:47.374Z,12.14
2022-10-05T06:59:42.271Z,12.11
2022-10-05T07:02:19.114Z,11.75
2022-10-05T07:04:52.212Z,11.75
2022-10-05T07:07:31.735Z,11.78
2022-10-05T07:10:33.486Z,11.77
2022-10-05T07:13:24.686Z,11.74
2022-10-05T07:16:04.429Z,11.91
2022-10-05T07:19:14.356Z,11.98
2022-10-05T07:22:22.065Z,12.02
2022-10-05T07:25:09.697Z,11.98
2022-10-05T07:27:58.514Z,11.98
2022-10-05T07:30:29.085Z,11.95
2022-10-05T07:33:11.320Z,11.97
2022-10-05T07:36:12.024Z,11.91
2022-10-05T07:38:47.526Z,11.90
2022-10-05T07:41:21.645Z,11.84
2022-10-05T07:44:28.495Z,11.78
2022-10-05T07:47:07.624Z,11.52
2022-10-05T07:49:58.481Z,11.34
2022-10-05T07:52:42.869Z,11.16
2022-10-05T07:55:25.784Z,11.20
2022-10-05T07:58:06.607Z,11.15
2022-10-05T08:01:10.244Z,11.06
2022-10-05T08:04:04.686Z,10.96
2022-10-05T08:06:45.304Z,10.99
2022-10-05T08:09:27.898Z,11.16
2022-10-05T08:12:40.068Z,11.33
2022-10-05T08:15:29.833Z,11.15
2022-10-05T08:18:21.644Z,11.32
2022-10-05T08:20:58.467Z,11.39
2022-10-05T08:23:31.606Z,11.46
2022-10-05T08:26:32.282Z,11.47
2022-10-05T08:29:09.138Z,11.53
2022-10-05T08:31:46.821Z,11.53
2022-10-05T08:34:26.258Z,11.50
2022-10-05T08:37:05.304Z,11.49
2022-10-05T08:39:50.035Z,11.30
2022-10-05T08:42:54.253Z,11.16
2022-10-05T08:45:52.154Z,11.06
2022-10-05T08:48:31.616Z,11.12
2022-10-05T08:52:08.881Z,10.96
2022-10-05T08:54:39.247Z,10.78
2022-10-05T08:57:32.065Z,10.85
2022-10-05T09:00:14.107Z,10.71
2022-10-05T09:03:01.385Z,10.88
2022-10-05T09:06:08.418Z,10.85
2022-10-05T09:08:58.857Z,10.86
2022-10-05T09:11:41.823Z,11.02
2022-10-05T09:14:31.150Z,11.13
2022-10-05T09:17:11.920Z,11.19
2022-10-05T09:20:19.136Z,11.24
2022-10-05T09:23:06.430Z,11.08
2022-10-05T09:25:40.163Z,10.95
2022-10-05T09:28:13.341Z,10.85
2022-10-05T09:31:00.751Z,10.91
2022-10-05T09:34:01.763Z,10.91
2022-10-05T09:36:50.952Z,10.96
2022-10-05T09:39:51.004Z,11.22
2022-10-05T09:42:49.075Z,11.40
2022-10-05T09:45:25.526Z,11.56
2022-10-05T09:48:20.288Z,11.63
2022-10-05T09:51:27.024Z,11.74
2022-10-05T09:54:30.483Z,11.50
2022-10-05T09:57:47.212Z,11.43
2022-10-05T10:00:38.086Z,11.63
2022-10-05T10:03:19.411Z,11.80
2022-10-05T10:06:12.424Z,11.97
2022-10-05T10:08:55.116Z,12.12
2022-10-05T10:11:46.801Z,12.22
2022-10-05T10:14:21.701Z,12.12
2022-10-05T10:17:10.899Z,12.06
2022-10-05T10:19:50.363Z,12.10
2022-10-05T10:22:59.666Z,12.21
2022-10-05T10:26:23.059Z,12.32
2022-10-05T10:28:59.099Z,12.36
2022-10-05T10:31:41.440Z,12.43
2022-10-05T10:34:21.135Z,12.59
2022-10-05T10:37:00.684Z,12.63
2022-10-05T10:40:15.403Z,12.63
2022-10-05T10:43:02.236Z,12.72
2022-10-05T10:45:38.728Z,12.82
2022-10-05T10:48:31.620Z,12.93
2022-10-05T10:51:14.035Z,13.04
2022-10-05T10:54:13.513Z,13.04
2022-10-05T10:56:50.611Z,13.14
2022-10-05T11:00:05.301Z,13.24
2022-10-05T11:03:00.283Z,13.30
2022-10-05T11:05:48.887Z,13.45
2022-10-05T11:08:19.635Z,13.48
2022-10-05T11:10:52.485Z,13.58
2022-10-05T11:13:44.507Z,13.71
2022-10-05T11:16:51.730Z,13.82
2022-10-05T11:20:02.479Z,13.89
2022-10-05T11:22:40.654Z,14.02
2022-10-05T11:25:43.805Z,14.15
2022-10-05T11:28:23.486Z,14.30
2022-10-05T11:31:04.399Z,14.43
2022-10-05T11:34:00.453Z,14.66
2022-10-05T11:36:46.161Z,14.77
2022-10-05T11:39:45.645Z,14.91
2022-10-05T11:42:40.302Z,15.08
2022-10-05T11:45:45.583Z,15.22
2022-10-05T11:48:37.375Z,15.43
2022-10-05T11:51:35.564Z,15.60
2022-10-05T11:54:32.516Z,15.82
2022-10-05T11:57:20.213Z,16.16
2022-10-05T12:00:00.917Z,16.34
2022-10-05T12:02:54.818Z,16.57
2022-10-05T12:05:49.488Z,16.68
2022-10-05T12:08:30.903Z,16.81
2022-10-05T12:11:28.431Z,16.82
2022-10-05T12:14:26.806Z,17.12
2022-10-05T12:17:08.633Z,17.23
2022-10-05T12:19:47.329Z,17.30
2022-10-05T12:22:18.782Z,17.46
2022-10-05T12:25:09.381Z,17.78
2022-10-05T12:27:49.108Z,17.71
2022-10-05T12:30:59.127Z,17.85
2022-10-05T12:33:35.445Z,17.92
2022-10-05T12:36:13.594Z,18.04
2022-10-05T12:39:22.766Z,18.38
2022-10-05T12:42:12.778Z,18.62
2022-10-05T12:45:09.862Z,18.83
2022-10-05T12:48:21.011Z,18.93
2022-10-05T12:51:06.760Z,19.01
2022-10-05T12:54:30.490Z,19.13
2022-10-05T12:57:24.085Z,19.50
2022-10-05T13:00:09.012Z,19.52
2022-10-05T13:03:04.103Z,19.48
2022-10-05T13:05:54.917Z,19.68
2022-10-05T13:08:38.664Z,19.95
2022-10-05T13:11:21.548Z,20.15
2022-10-05T13:14:12.340Z,20.40
2022-10-05T13:16:54.963Z,20.48
2022-10-05T13:19:49.613Z,20.64
2022-10-05T13:22:40.848Z,20.80
2022-10-05T13:25:46.229Z,20.88
2022-10-05T13:28:20.830Z,21.09
2022-10-05T13:31:03.975Z,21.22
2022-10-05T13:33:54.411Z,21.42
2022-10-05T13:36:55.235Z,21.46
2022-10-05T13:39:40.813Z,21.80
2022-10-05T13:42:13.337Z,22.06
2022-10-05T13:45:01.680Z,22.17
2022-10-05T13:47:39.179Z,22.52
2022-10-05T13:50:33.596Z,22.45
2022-10-05T13:53:17.782Z,22.44
2022-10-05T13:55:54.705Z,22.67
2022-10-05T13:58:48.143Z,22.82
2022-10-05T14:01:39.607Z,23.03
2022-10-05T14:04:25.859Z,23.15
2022-10-05T14:06:56.440Z,23.26
2022-10-05T14:09:36.410Z,23.53
2022-10-05T14:12:06.717Z,23.68
2022-10-05T14:14:48.155Z,23.88
2022-10-05T14:17:36.183Z,23.96
2022-10-05T14:20:26.048Z,23.66
2022-10-05T14:23:22.481Z,23.88
2022-10-05T14:25:56.553Z,23.93
2022-10-05T14:28:35.436Z,24.01
2022-10-05T14:31:17.228Z,24.26
2022-10-05T14:33:47.971Z,24.45
2022-10-05T14:36:34.220Z,24.47
2022-10-05T14:39:06.486Z,24.53
2022-10-05T14:41:39.034Z,24.49
2022-10-05T14:44:15.339Z,24.47
2022-10-05T14:46:55.983Z,24.75
2022-10-05T14:49:30.962Z,24.80
2022-10-05T14:52:01.987Z,24.72
2022-10-05T14:54:58.742Z,24.86
2022-10-05T14:57:49.589Z,24.91
2022-10-05T15:00:20.737Z,25.21
2022-10-05T15:03:00.277Z,25.20
2022-10-05T15:06:00.847Z,25.30
2022-10-05T15:08:52.446Z,25.55
2022-10-05T15:11:31.807Z,25.71
2022-10-05T15:14:03.922Z,25.89
2022-10-05T15:16:42.342Z,25.77
2022-10-05T15:19:24.455Z,25.65
2022-10-05T15:22:30.481Z,26.01
2022-10-05T15:25:24.998Z,26.64
2022-10-05T15:28:14.976Z,26.42
2022-10-05T15:31:28.424Z,26.47
2022-10-05T15:34:03.990Z,26.79
2022-10-05T15:37:11.107Z,26.84
2022-10-05T15:39:57.663Z,27.07
2022-10-05T15:42:39.785Z,27.15
2022-10-05T15:46:06.567Z,27.49
2022-10-05T15:48:50.960Z,27.52
2022-10-05T15:51:30.232Z,27.53
2022-10-05T15:54:37.577Z,27.90
2022-10-05T15:57:32.516Z,27.48
2022-10-05T16:00:21.195Z,27.63
2022-10-05T16:02:54.530Z,27.42
2022-10-05T16:06:05.225Z,27.76
2022-10-05T16:08:53.901Z,27.53
2022-10-05T16:11:48.501Z,28.09
2022-10-05T16:14:57.787Z,27.90
2022-10-05T16:18:03.843Z,27.67
2022-10-05T16:20:52.501Z,28.00
2022-10-05T16:23:34.943Z,27.92
2022-10-05T16:26:35.458Z,27.61
2022-10-05T16:29:14.349Z,27.56
2022-10-05T16:32:07.162Z,28.07
2022-10-05T16:34:58.493Z,27.90
2022-10-05T16:37:52.053Z,27.83
2022-10-05T16:40:46.195Z,27.73
2022-10-05T16:43:22.569Z,27.90
2022-10-05T16:46:22.359Z,27.86
2022-10-05T16:49:17.879Z,28.25
2022-10-05T16:52:06.934Z,27.69
2022-10-05T16:54:54.498Z,27.39
2022-10-05T16:57:33.751Z,27.15
2022-10-05T17:00:24.868Z,27.34
2022-10-05T17:03:07.137Z,27.61
2022-10-05T17:06:06.199Z,27.38
2022-10-05T17:08:57.851Z,27.18
2022-10-05T17:11:51.227Z,26.88
2022-10-05T17:14:27.755Z,27.00
2022-10-05T17:17:19.162Z,26.84
2022-10-05T17:20:02.179Z,26.98
2022-10-05T17:22:38.845Z,26.83
2022-10-05T17:25:40.760Z,26.61
2022-10-05T17:28:20.361Z,26.51
2022-10-05T17:31:20.005Z,26.03
2022-10-05T17:34:03.896Z,26.23
2022-10-05T17:36:54.635Z,26.10
2022-10-05T17:39:45.872Z,26.06
2022-10-05T17:42:31.873Z,25.99
2022-10-05T17:45:23.108Z,25.93
2022-10-05T17:47:59.639Z,26.12
2022-10-05T17:51:02.177Z,26.10
2022-10-05T17:54:05.351Z,25.93
2022-10-05T17:56:58.552Z,26.06
2022-10-05T17:59:58.148Z,26.23
2022-10-05T18:02:38.703Z,26.33
2022-10-05T18:05:30.119Z,26.23
2022-10-05T18:08:17.728Z,26.22
2022-10-05T18:11:24.801Z,26.47
2022-10-05T18:14:27.649Z,26.06
2022-10-05T18:17:15.377Z,26.09
2022-10-05T18:20:19.275Z,26.22
2022-10-05T18:22:52.393Z,26.10
2022-10-05T18:25:54.825Z,26.01
2022-10-05T18:28:45.267Z,25.77
2022-10-05T18:31:37.898Z,25.55
2022-10-05T18:34:14.623Z,25.98
2022-10-05T18:37:12.372Z,25.62
2022-10-05T18:39:46.021Z,25.67
2022-10-05T18:42:29.362Z,25.58
2022-10-05T18:45:18.764Z,25.48
2022-10-05T18:48:13.986Z,25.57
2022-10-05T18:50:59.486Z,25.57
2022-10-05T18:53:40.267Z,25.54
2022-10-05T18:56:13.570Z,25.41
2022-10-05T18:58:56.559Z,25.84
2022-10-05T19:01:45.848Z,26.90
2022-10-05T19:04:53.044Z,27.11
2022-10-05T19:07:42.212Z,25.88
2022-10-05T19:10:33.519Z,25.62
2022-10-05T19:13:36.405Z,25.47
2022-10-05T19:16:15.920Z,25.40
2022-10-05T19:19:30.889Z,25.14
2022-10-05T19:22:33.936Z,24.87
2022-10-05T19:25:19.596Z,25.02
2022-10-05T19:28:22.959Z,24.94
2022-10-05T19:30:53.400Z,26.12
2022-10-05T19:33:41.797Z,25.74
2022-10-05T19:36:50.129Z,24.77
2022-10-05T19:39:30.378Z,24.66
2022-10-05T19:42:24.377Z,24.72
2022-10-05T19:45:05.167Z,24.70
2022-10-05T19:48:06.130Z,24.35
2022-10-05T19:50:38.969Z,24.62
2022-10-05T19:53:38.428Z,24.59
2022-10-05T19:56:24.679Z,24.87
2022-10-05T19:59:00.696Z,24.55
2022-10-05T20:01:35.290Z,24.26
2022-10-05T20:04:06.613Z,25.11
2022-10-05T20:06:37.239Z,24.66
2022-10-05T20:09:21.992Z,24.12
2022-10-05T20:11:54.249Z,24.47
2022-10-05T20:14:59.110Z,25.16
2022-10-05T20:17:48.935Z,27.59
2022-10-05T20:20:39.916Z,27.21
2022-10-05T20:23:29.188Z,27.16
2022-10-05T20:26:17.628Z,26.16
2022-10-05T20:28:48.960Z,24.89
2022-10-05T20:31:21.351Z,25.45
2022-10-05T20:33:51.827Z,24.40
2022-10-05T20:36:22.371Z,23.90
2022-10-05T20:38:52.979Z,23.84
2022-10-05T20:41:23.645Z,23.16
2022-10-05T20:43:55.815Z,22.82
2022-10-05T20:46:26.901Z,22.44
2022-10-05T20:48:57.380Z,22.11
2022-10-05T20:51:30.347Z,21.82
2022-10-05T20:54:00.841Z,21.56
2022-10-05T20:56:31.853Z,21.42
2022-10-05T20:59:02.368Z,21.32
2022-10-05T21:01:33.098Z,21.22
2022-10-05T21:04:08.083Z,21.21
2022-10-05T21:06:38.662Z,20.97
2022-10-05T21:09:12.600Z,20.85
2022-10-05T21:11:47.472Z,20.75
2022-10-05T21:14:19.516Z,20.67
2022-10-05T21:16:50.063Z,20.57
2022-10-05T21:19:20.530Z,20.61
2022-10-05T21:21:51.390Z,20.51
2022-10-05T21:24:21.949Z,20.48
2022-10-05T21:26:52.500Z,20.32
2022-10-05T21:29:23.413Z,20.29
2022-10-05T21:31:54.209Z,20.26
2022-10-05T21:34:26.664Z,20.20
2022-10-05T21:36:57.214Z,20.19
2022-10-05T21:39:28.198Z,19.97
2022-10-05T21:41:58.596Z,19.89
2022-10-05T21:44:28.895Z,19.89
2022-10-05T21:46:59.230Z,19.83
2022-10-05T21:49:30.431Z,19.78
2022-10-05T21:52:02.576Z,19.68
2022-10-05T21:54:35.293Z,19.58
2022-10-05T21:57:05.835Z,19.48
2022-10-05T21:59:36.838Z,19.44
2022-10-05T22:02:10.805Z,19.36
2022-10-05T22:04:41.275Z,19.32
2022-10-05T22:07:19.975Z,19.23
2022-10-05T22:09:53.901Z,19.18
2022-10-05T22:12:25.782Z,19.13
2022-10-05T22:14:56.109Z,19.07
2022-10-05T22:17:29.488Z,19.04
2022-10-05T22:20:02.981Z,19.03
2022-10-05T22:22:34.538Z,18.97
2022-10-05T22:25:05.799Z,18.92
2022-10-05T22:27:37.489Z,18.93
2022-10-05T22:30:08.735Z,18.86
2022-10-05T22:32:39.244Z,18.79
2022-10-05T22:35:11.717Z,18.74
2022-10-05T22:37:42.391Z,18.76
2022-10-05T22:40:13.255Z,18.70
2022-10-05T22:42:43.788Z,18.66
2022-10-05T22:45:15.484Z,18.70
2022-10-05T22:47:46.232Z,18.67
2022-10-05T22:50:16.683Z,18.64
2022-10-05T22:52:47.156Z,18.66
2022-10-05T22:55:17.627Z,18.63
2022-10-05T22:57:48.308Z,18.56
2022-10-05T23:00:19.383Z,18.55
2022-10-05T23:02:49.826Z,18.57
2022-10-05T23:05:20.281Z,18.60
2022-10-05T23:07:50.627Z,18.63
2022-10-05T23:10:21.509Z,18.79
2022-10-05T23:13:01.040Z,18.66
2022-10-05T23:15:31.564Z,18.59
2022-10-05T23:18:01.742Z,18.60
2022-10-05T23:20:31.834Z,18.57
2022-10-05T23:23:02.141Z,18.77
2022-10-05T23:25:32.536Z,18.83
2022-10-05T23:28:04.136Z,18.73
2022-10-05T23:30:34.784Z,18.74
2022-10-05T23:33:05.313Z,18.84
2022-10-05T23:35:35.747Z,18.87
2022-10-05T23:38:06.257Z,18.80
2022-10-05T23:40:36.767Z,18.79
2022-10-05T23:43:06.971Z,18.69
2022-10-05T23:45:37.404Z,18.56
2022-10-05T23:48:08.255Z,18.45
2022-10-05T23:50:39.165Z,18.51
2022-10-05T23:53:09.757Z,18.42
2022-10-05T23:55:40.018Z,18.29
2022-10-05T23:58:10.714Z,18.33
